Bauerfield Efate, Vanuatu
Current Conditions -  °F | °C
As of 7:00 PM on Monday 26 Jan 2015 (Local Time) from NVVV Reporting Station
Scattered Clouds Scattered Clouds  
Wind Chill: 82°   Ceiling: Unl
Heat Index: 89°   Visibility: 6mi
Dew Point: 75°   Wind: 3mph
Humidity: 79%   Direction: NA
Pressure: 29.65"   Gusts: NA
Location:  17.7°S, 168.3°E
Report Text: NVVV 260800Z VRB03KT 9999 SCT022 28/24 Q1004 RMK NIL
Loading
Personal Weather Stations






























Interactive Weather Map New forecast layout! Learn more

10-Day Weather Forecast

Advertisements
Track Severe Weather on mobile